Time;durP1;ratioP1;P1;durP2;ratioP2;P2;SDS_P1;SDS_P2;PMS_P1;PMS_P2;Temp;Humidity;BMP_temperature;BMP_pressure;BME280_temperature;BME280_humidity;BME280_pressure;Samples;Min_cycle;Max_cycle;Signal;HPM_P1;HPM_P2
2022/11/22 00:01:34;;;;;;;;;;;;;;;;;;5104744;28;944;-78
2022/11/22 00:04:00;;;;;;;;;;;;;;;;;;5105538;28;1318;-79
2022/11/22 00:06:27;;;;;;;;;;;;;;;;;;5106282;28;1126;-79
2022/11/22 00:08:54;;;;;;;;;;;;;;;;;;5104086;28;996;-78
2022/11/22 00:11:20;;;;;;;;;;;;;;;;;;5102984;28;1419;-78
2022/11/22 00:13:46;;;;;;;;;;;;;;;;;;5105541;28;1277;-79
2022/11/22 00:16:13;;;;;;;;;;;;;;;;;;5121320;28;1324;-79
2022/11/22 00:18:39;;;;;;;;;;;;;;;;;;5104530;28;1913;-79
2022/11/22 00:21:06;;;;;;;;;;;;;;;;;;5105175;28;996;-79
2022/11/22 00:23:32;;;;;;;;;;;;;;;;;;5104729;28;1379;-79
2022/11/22 00:25:59;;;;;;;;;;;;;;;;;;5105564;28;878;-79
2022/11/22 00:28:25;;;;;;;;;;;;;;;;;;5105532;28;1075;-79
2022/11/22 00:30:52;;;;;;;;;;;;;;;;;;5105529;28;877;-78
2022/11/22 00:33:18;;;;;;;;;;;;;;;;;;5104480;28;1375;-78
2022/11/22 00:35:44;;;;;;;;;;;;;;;;;;5106105;28;1008;-79
2022/11/22 00:38:11;;;;;;;;;;;;;;;;;;5105121;28;1918;-79
2022/11/22 00:40:37;;;;;;;;;;;;;;;;;;5105004;28;1147;-78
2022/11/22 00:43:05;;;;;;;;;;;;;;;;;;5102910;28;1114;-78
2022/11/22 00:45:31;;;;;;;;;;;;;;;;;;5102688;28;1462;-78
2022/11/22 00:47:57;;;;;;;;;;;;;;;;;;5098391;28;1100;-78
2022/11/22 00:50:23;;;;;;;;;;;;;;;;;;5098103;28;896;-78
2022/11/22 00:52:49;;;;;;;;;;;;;;;;;;5100324;28;1123;-79
2022/11/22 00:55:16;;;;;;;;;;;;;;;;;;5104479;28;1388;-78
2022/11/22 00:57:42;;;;;;;;;;;;;;;;;;5102992;28;1905;-78
2022/11/22 01:00:10;;;;;;;;;;;;;;;;;;5101982;28;1991;-78
2022/11/22 01:02:37;;;;;;;;;;;;;;;;;;5101352;28;1146;-78
2022/11/22 01:05:03;;;;;;;;;;;;;;;;;;5104254;28;1353;-79
2022/11/22 01:07:29;;;;;;;;;;;;;;;;;;5104766;28;1070;-78
2022/11/22 01:09:56;;;;;;;;;;;;;;;;;;5103324;28;1047;-78
2022/11/22 01:12:22;;;;;;;;;;;;;;;;;;5102277;28;1031;-78
2022/11/22 01:14:48;;;;;;;;;;;;;;;;;;5103073;28;1329;-78
2022/11/22 01:17:16;;;;;;;;;;;;;;;;;;5104484;28;1961;-78
2022/11/22 01:19:42;;;;;;;;;;;;;;;;;;5104694;28;1091;-78
2022/11/22 01:22:08;;;;;;;;;;;;;;;;;;5102428;28;1221;-78
2022/11/22 01:24:34;;;;;;;;;;;;;;;;;;5104728;28;1267;-78
2022/11/22 01:27:01;;;;;;;;;;;;;;;;;;5119223;28;1146;-78
2022/11/22 01:29:27;;;;;;;;;;;;;;;;;;5103957;28;1012;-79
2022/11/22 01:31:53;;;;;;;;;;;;;;;;;;5101206;28;1063;-78
2022/11/22 01:34:21;;;;;;;;;;;;;;;;;;5103057;28;1278;-79
2022/11/22 01:36:47;;;;;;;;;;;;;;;;;;5103046;28;1016;-79
2022/11/22 01:39:14;;;;;;;;;;;;;;;;;;5121295;28;1983;-80
2022/11/22 01:41:40;;;;;;;;;;;;;;;;;;5108903;28;1079;-79
2022/11/22 01:44:19;;;;;;;;;;;;;;;;;;5105310;28;1920;-76
2022/11/22 01:46:46;;;;;;;;;;;;;;;;;;5094143;28;1964;-77
2022/11/22 01:49:12;;;;;;;;;;;;;;;;;;5111473;28;2212;-78
2022/11/22 01:51:40;;;;;;;;;;;;;;;;;;5095698;28;1043;-78
2022/11/22 01:54:08;;;;;;;;;;;;;;;;;;5094786;28;1313;-78
2022/11/22 01:56:34;;;;;;;;;;;;;;;;;;5112197;28;1297;-78
2022/11/22 01:59:02;;;;;;;;;;;;;;;;;;5096129;28;1910;-77
2022/11/22 02:01:28;;;;;;;;;;;;;;;;;;5095778;28;1131;-78
2022/11/22 02:03:54;;;;;;;;;;;;;;;;;;5096429;28;1301;-78
2022/11/22 02:06:21;;;;;;;;;;;;;;;;;;5095545;28;1112;-77
2022/11/22 02:08:51;;;;;;;;;;;;;;;;;;5096950;28;1114;-78
2022/11/22 02:11:18;;;;;;;;;;;;;;;;;;5111440;28;1579;-77
2022/11/22 02:13:44;;;;;;;;;;;;;;;;;;5092827;28;1349;-78
2022/11/22 02:16:10;;;;;;;;;;;;;;;;;;5094530;28;1075;-77
2022/11/22 02:18:36;;;;;;;;;;;;;;;;;;5114753;28;1914;-77
2022/11/22 02:21:03;;;;;;;;;;;;;;;;;;5098591;28;1095;-78
2022/11/22 02:23:30;;;;;;;;;;;;;;;;;;5096651;28;1358;-78
2022/11/22 02:25:58;;;;;;;;;;;;;;;;;;5094476;28;1119;-78
2022/11/22 02:28:24;;;;;;;;;;;;;;;;;;5095847;28;1118;-78
2022/11/22 02:30:50;;;;;;;;;;;;;;;;;;5097208;28;972;-78
2022/11/22 02:33:16;;;;;;;;;;;;;;;;;;5095292;28;798;-78
2022/11/22 02:35:43;;;;;;;;;;;;;;;;;;5096874;28;1541;-78
2022/11/22 02:38:09;;;;;;;;;;;;;;;;;;5097023;28;1915;-78
2022/11/22 02:40:36;;;;;;;;;;;;;;;;;;5097081;28;920;-78
2022/11/22 02:43:05;;;;;;;;;;;;;;;;;;5095306;28;1095;-78
2022/11/22 02:45:31;;;;;;;;;;;;;;;;;;5095869;28;1273;-78
2022/11/22 02:48:04;;;;;;;;;;;;;;;;;;5094010;28;1243;-78
2022/11/22 02:50:30;;;;;;;;;;;;;;;;;;5092809;28;1305;-79
2022/11/22 02:52:56;;;;;;;;;;;;;;;;;;5095319;28;909;-78
2022/11/22 02:55:22;;;;;;;;;;;;;;;;;;5095656;28;1296;-78
2022/11/22 02:57:48;;;;;;;;;;;;;;;;;;5095441;28;1922;-77
2022/11/22 03:00:16;;;;;;;;;;;;;;;;;;5095485;28;829;-78
2022/11/22 03:02:42;;;;;;;;;;;;;;;;;;5094614;28;1082;-78
2022/11/22 03:05:09;;;;;;;;;;;;;;;;;;5096106;28;1258;-78
2022/11/22 03:07:35;;;;;;;;;;;;;;;;;;5095993;28;1271;-78
2022/11/22 03:10:01;;;;;;;;;;;;;;;;;;5095517;28;948;-78
2022/11/22 03:12:27;;;;;;;;;;;;;;;;;;5095141;28;1116;-78
2022/11/22 03:14:54;;;;;;;;;;;;;;;;;;5093982;28;1474;-77
2022/11/22 03:17:21;;;;;;;;;;;;;;;;;;5096480;28;1059;-78
2022/11/22 03:19:47;;;;;;;;;;;;;;;;;;5095831;28;1983;-77
2022/11/22 03:22:14;;;;;;;;;;;;;;;;;;5092729;28;1063;-78
2022/11/22 03:24:40;;;;;;;;;;;;;;;;;;5093468;28;1387;-78
2022/11/22 03:27:06;;;;;;;;;;;;;;;;;;5093118;28;1063;-78
2022/11/22 03:29:33;;;;;;;;;;;;;;;;;;5089720;28;760;-78
2022/11/22 03:31:59;;;;;;;;;;;;;;;;;;5091747;28;1204;-79
2022/11/22 03:34:26;;;;;;;;;;;;;;;;;;5090012;28;2082;-77
2022/11/22 03:36:53;;;;;;;;;;;;;;;;;;5088758;28;1742;-76
2022/11/22 03:39:19;;;;;;;;;;;;;;;;;;5090957;28;1887;-78
2022/11/22 03:41:45;;;;;;;;;;;;;;;;;;5107580;28;1285;-78
2022/11/22 03:44:11;;;;;;;;;;;;;;;;;;5095974;28;1388;-78
2022/11/22 03:46:37;;;;;;;;;;;;;;;;;;5094143;28;1043;-76
2022/11/22 03:49:04;;;;;;;;;;;;;;;;;;5094142;28;1798;-77
2022/11/22 03:51:31;;;;;;;;;;;;;;;;;;5093222;28;1157;-77
2022/11/22 03:53:57;;;;;;;;;;;;;;;;;;5095103;28;1355;-78
2022/11/22 03:56:24;;;;;;;;;;;;;;;;;;5110427;28;1309;-77
2022/11/22 03:58:50;;;;;;;;;;;;;;;;;;5093973;28;1914;-77
2022/11/22 04:01:16;;;;;;;;;;;;;;;;;;5094262;28;909;-75
2022/11/22 04:03:42;;;;;;;;;;;;;;;;;;5096329;28;1360;-77
2022/11/22 04:06:08;;;;;;;;;;;;;;;;;;5097609;28;957;-77
2022/11/22 04:08:36;;;;;;;;;;;;;;;;;;5097015;28;574;-77
2022/11/22 04:11:03;;;;;;;;;;;;;;;;;;5096111;28;1168;-77
2022/11/22 04:16:09;;;;;;;;;;;;;;;;;;5097064;28;1031;-78
2022/11/22 04:18:35;;;;;;;;;;;;;;;;;;5094721;28;2018;-76
2022/11/22 04:25:12;;;;;;;;;;;;;;;;;;5095927;28;1477;-77
2022/11/22 04:26:33;;;;;;;;;;;;;;;;;;5102947;28;1126;-79
2022/11/22 04:28:59;;;;;;;;;;;;;;;;;;5103392;28;1194;-78
2022/11/22 04:34:09;;;;;;;;;;;;;;;;;;5101597;28;1542;-78
2022/11/22 04:36:35;;;;;;;;;;;;;;;;;;5103705;28;1200;-77
2022/11/22 04:39:02;;;;;;;;;;;;;;;;;;5104605;28;1940;-78
2022/11/22 04:41:29;;;;;;;;;;;;;;;;;;5105800;28;1091;-78
2022/11/22 04:46:39;;;;;;;;;;;;;;;;;;5093791;28;1477;-78
2022/11/22 04:49:05;;;;;;;;;;;;;;;;;;5078192;28;1457;-78
2022/11/22 04:54:16;;;;;;;;;;;;;;;;;;5096290;28;1281;-78
2022/11/22 04:56:42;;;;;;;;;;;;;;;;;;5092906;28;1413;-77
2022/11/22 04:59:09;;;;;;;;;;;;;;;;;;5086566;28;1905;-79
2022/11/22 05:01:35;;;;;;;;;;;;;;;;;;5095571;28;1075;-78
2022/11/22 05:04:01;;;;;;;;;;;;;;;;;;5096616;28;1288;-78
2022/11/22 05:06:27;;;;;;;;;;;;;;;;;;5110229;28;1324;-78
2022/11/22 05:08:53;;;;;;;;;;;;;;;;;;5086220;28;1367;-78
2022/11/22 05:11:21;;;;;;;;;;;;;;;;;;5087348;28;1129;-77
2022/11/22 05:13:47;;;;;;;;;;;;;;;;;;5109274;28;1308;-77
2022/11/22 05:16:14;;;;;;;;;;;;;;;;;;5092476;22;3834;-75
2022/11/22 05:18:41;;;;;;;;;;;;;;;;;;5065304;28;1972;-74
2022/11/22 05:21:08;;;;;;;;;;;;;;;;;;5070120;28;1244;-73
2022/11/22 05:26:17;;;;;;;;;;;;;;;;;;5064844;28;1499;-74
2022/11/22 05:28:45;;;;;;;;;;;;;;;;;;5066368;28;1333;-73
2022/11/22 05:31:12;;;;;;;;;;;;;;;;;;5064038;28;1177;-71
2022/11/22 05:33:39;;;;;;;;;;;;;;;;;;5071694;28;1127;-74
2022/11/22 05:36:05;;;;;;;;;;;;;;;;;;5072676;28;1381;-75
2022/11/22 05:38:34;;;;;;;;;;;;;;;;;;5072443;28;1969;-74
2022/11/22 05:41:00;;;;;;;;;;;;;;;;;;5071901;28;1141;-73
2022/11/22 05:43:27;;;;;;;;;;;;;;;;;;5069988;28;1303;-74
2022/11/22 05:45:54;;;;;;;;;;;;;;;;;;5071757;28;1400;-74
2022/11/22 05:48:20;;;;;;;;;;;;;;;;;;5070755;28;1258;-74
2022/11/22 05:50:47;;;;;;;;;;;;;;;;;;5071761;28;1316;-74
2022/11/22 05:53:13;;;;;;;;;;;;;;;;;;5071096;28;1238;-74
2022/11/22 05:55:39;;;;;;;;;;;;;;;;;;5071941;28;1420;-74
2022/11/22 05:58:05;;;;;;;;;;;;;;;;;;5070692;28;1302;-72
2022/11/22 06:00:32;;;;;;;;;;;;;;;;;;5071798;28;1972;-74
2022/11/22 06:03:03;;;;;;;;;;;;;;;;;;5070183;28;1214;-74
2022/11/22 06:05:29;;;;;;;;;;;;;;;;;;5071827;28;1522;-74
2022/11/22 06:07:57;;;;;;;;;;;;;;;;;;5070040;28;1214;-73
2022/11/22 06:10:23;;;;;;;;;;;;;;;;;;5071903;28;1206;-73
2022/11/22 06:12:49;;;;;;;;;;;;;;;;;;5071425;28;1305;-75
2022/11/22 06:15:15;;;;;;;;;;;;;;;;;;5071635;28;1437;-74
2022/11/22 06:17:42;;;;;;;;;;;;;;;;;;5072112;28;695;-74
2022/11/22 06:20:10;;;;;;;;;;;;;;;;;;5071837;28;1965;-74
2022/11/22 06:22:36;;;;;;;;;;;;;;;;;;5070955;28;943;-76
2022/11/22 06:25:02;;;;;;;;;;;;;;;;;;5068967;28;1336;-75
2022/11/22 06:27:29;;;;;;;;;;;;;;;;;;5071003;28;1310;-75
2022/11/22 06:29:55;;;;;;;;;;;;;;;;;;5069807;28;1309;-76
2022/11/22 06:32:21;;;;;;;;;;;;;;;;;;5071715;28;1088;-76
2022/11/22 06:34:47;;;;;;;;;;;;;;;;;;5070662;28;1383;-76
2022/11/22 06:37:15;;;;;;;;;;;;;;;;;;5070343;28;1529;-76
2022/11/22 06:39:42;;;;;;;;;;;;;;;;;;5071455;28;1914;-75
2022/11/22 06:42:08;;;;;;;;;;;;;;;;;;5071316;28;767;-75
2022/11/22 06:44:34;;;;;;;;;;;;;;;;;;5071256;28;1389;-76
2022/11/22 06:47:00;;;;;;;;;;;;;;;;;;5071845;28;914;-76
2022/11/22 06:49:26;;;;;;;;;;;;;;;;;;5072020;28;1099;-74
2022/11/22 06:51:52;;;;;;;;;;;;;;;;;;5070897;28;1118;-75
2022/11/22 06:54:20;;;;;;;;;;;;;;;;;;5071988;28;1067;-75
2022/11/22 06:56:46;;;;;;;;;;;;;;;;;;5070227;28;1392;-75
2022/11/22 06:59:12;;;;;;;;;;;;;;;;;;5070372;28;1906;-75
2022/11/22 07:01:39;;;;;;;;;;;;;;;;;;5069330;28;1296;-75
2022/11/22 07:04:05;;;;;;;;;;;;;;;;;;5071511;28;1055;-75
2022/11/22 07:06:32;;;;;;;;;;;;;;;;;;5071660;28;1367;-75
2022/11/22 07:08:58;;;;;;;;;;;;;;;;;;5071403;28;1028;-74
2022/11/22 07:11:26;;;;;;;;;;;;;;;;;;5070893;28;786;-74
2022/11/22 07:13:53;;;;;;;;;;;;;;;;;;5071403;28;1048;-74
2022/11/22 07:16:20;;;;;;;;;;;;;;;;;;5071418;28;1349;-74
2022/11/22 07:18:46;;;;;;;;;;;;;;;;;;5071146;28;983;-75
2022/11/22 07:21:13;;;;;;;;;;;;;;;;;;5071364;28;2356;-74
2022/11/22 07:23:40;;;;;;;;;;;;;;;;;;5070767;28;1083;-75
2022/11/22 07:26:06;;;;;;;;;;;;;;;;;;5071416;28;1274;-74
2022/11/22 07:28:34;;;;;;;;;;;;;;;;;;5071438;28;777;-74
2022/11/22 07:31:00;;;;;;;;;;;;;;;;;;5070612;28;1518;-74
2022/11/22 07:33:26;;;;;;;;;;;;;;;;;;5068838;28;1239;-74
2022/11/22 07:35:53;;;;;;;;;;;;;;;;;;5070486;28;1482;-74
2022/11/22 07:38:19;;;;;;;;;;;;;;;;;;5072188;28;1368;-75
2022/11/22 07:40:45;;;;;;;;;;;;;;;;;;5074512;28;1914;-75
2022/11/22 07:43:11;;;;;;;;;;;;;;;;;;5074138;28;1052;-75
2022/11/22 07:45:39;;;;;;;;;;;;;;;;;;5074719;28;1232;-75
2022/11/22 07:48:06;;;;;;;;;;;;;;;;;;5074946;28;728;-75
2022/11/22 07:50:32;;;;;;;;;;;;;;;;;;5074868;28;865;-76
2022/11/22 07:52:58;;;;;;;;;;;;;;;;;;5065826;28;1139;-75
2022/11/22 07:55:25;;;;;;;;;;;;;;;;;;5074755;28;1276;-75
2022/11/22 07:57:52;;;;;;;;;;;;;;;;;;5074213;28;924;-75
2022/11/22 08:00:18;;;;;;;;;;;;;;;;;;5074430;28;1934;-74
2022/11/22 08:02:46;;;;;;;;;;;;;;;;;;5073278;28;956;-74
2022/11/22 08:05:12;;;;;;;;;;;;;;;;;;5074185;28;1384;-74
2022/11/22 08:07:38;;;;;;;;;;;;;;;;;;5074121;28;1139;-73
2022/11/22 08:10:05;;;;;;;;;;;;;;;;;;5074352;28;838;-75
2022/11/22 08:12:31;;;;;;;;;;;;;;;;;;5072066;28;1260;-75
2022/11/22 08:14:57;;;;;;;;;;;;;;;;;;5073870;28;1333;-74
2022/11/22 08:17:23;;;;;;;;;;;;;;;;;;5074335;28;1058;-75
2022/11/22 08:19:52;;;;;;;;;;;;;;;;;;5072635;28;1910;-75
2022/11/22 08:22:18;;;;;;;;;;;;;;;;;;5073299;28;1098;-75
2022/11/22 08:24:44;;;;;;;;;;;;;;;;;;5073750;28;1264;-75
2022/11/22 08:27:10;;;;;;;;;;;;;;;;;;5074050;28;933;-75
2022/11/22 08:29:37;;;;;;;;;;;;;;;;;;5074118;28;1115;-75
2022/11/22 08:32:03;;;;;;;;;;;;;;;;;;5071994;28;1111;-75
2022/11/22 08:34:29;;;;;;;;;;;;;;;;;;5072430;28;1318;-75
2022/11/22 08:36:57;;;;;;;;;;;;;;;;;;5074172;28;984;-75
2022/11/22 08:39:23;;;;;;;;;;;;;;;;;;5073195;28;1980;-74
2022/11/22 08:41:49;;;;;;;;;;;;;;;;;;5072203;28;1138;-76
2022/11/22 08:44:15;;;;;;;;;;;;;;;;;;5073762;28;817;-76
2022/11/22 08:46:41;;;;;;;;;;;;;;;;;;5073046;28;1629;-74
2022/11/22 08:49:10;;;;;;;;;;;;;;;;;;5073276;28;993;-75
2022/11/22 08:51:36;;;;;;;;;;;;;;;;;;5072626;28;771;-74
2022/11/22 08:54:03;;;;;;;;;;;;;;;;;;5071812;28;1226;-75
2022/11/22 08:56:30;;;;;;;;;;;;;;;;;;5073403;28;1251;-75
2022/11/22 08:58:56;;;;;;;;;;;;;;;;;;5071622;28;1166;-75
2022/11/22 09:01:22;;;;;;;;;;;;;;;;;;5072519;28;1914;-74
2022/11/22 09:03:49;;;;;;;;;;;;;;;;;;5073191;28;1525;-75
2022/11/22 09:06:16;;;;;;;;;;;;;;;;;;5073020;28;1503;-75
2022/11/22 09:08:42;;;;;;;;;;;;;;;;;;5072618;28;1059;-75
2022/11/22 09:11:11;;;;;;;;;;;;;;;;;;5072922;28;1123;-75
2022/11/22 09:13:37;;;;;;;;;;;;;;;;;;5071973;28;1075;-74
2022/11/22 09:16:03;;;;;;;;;;;;;;;;;;5072430;28;1328;-74
2022/11/22 09:18:29;;;;;;;;;;;;;;;;;;5071276;28;1392;-75
2022/11/22 09:20:59;;;;;;;;;;;;;;;;;;5072460;28;1906;-75
2022/11/22 09:23:25;;;;;;;;;;;;;;;;;;5071737;28;715;-75
2022/11/22 09:25:56;;;;;;;;;;;;;;;;;;5071392;28;1382;-75
2022/11/22 09:28:23;;;;;;;;;;;;;;;;;;5070048;28;1131;-75
2022/11/22 09:30:50;;;;;;;;;;;;;;;;;;5070599;28;766;-75
2022/11/22 09:33:16;;;;;;;;;;;;;;;;;;5067282;28;1129;-75
2022/11/22 09:35:42;;;;;;;;;;;;;;;;;;5072564;28;1366;-75
2022/11/22 09:38:08;;;;;;;;;;;;;;;;;;5072289;28;896;-75
2022/11/22 09:40:35;;;;;;;;;;;;;;;;;;5070933;28;1977;-75
2022/11/22 09:43:07;;;;;;;;;;;;;;;;;;5068927;28;1138;-75
2022/11/22 09:45:36;;;;;;;;;;;;;;;;;;5072264;28;1285;-75
2022/11/22 09:48:05;;;;;;;;;;;;;;;;;;5072631;28;1780;-75
2022/11/22 09:50:33;;;;;;;;;;;;;;;;;;5076081;28;1067;-75
2022/11/22 09:53:02;;;;;;;;;;;;;;;;;;5072855;28;1432;-73
2022/11/22 09:55:30;;;;;;;;;;;;;;;;;;5073120;28;1288;-74
2022/11/22 09:57:59;;;;;;;;;;;;;;;;;;5070948;28;763;-73
2022/11/22 10:00:25;;;;;;;;;;;;;;;;;;5070400;28;1971;-75
2022/11/22 10:02:54;;;;;;;;;;;;;;;;;;5070800;28;945;-75
2022/11/22 10:05:20;;;;;;;;;;;;;;;;;;5070100;28;1313;-75
2022/11/22 10:07:47;;;;;;;;;;;;;;;;;;5069514;28;771;-75
2022/11/22 10:10:15;;;;;;;;;;;;;;;;;;5070754;28;878;-75
2022/11/22 10:12:44;;;;;;;;;;;;;;;;;;5067094;28;1134;-75
2022/11/22 10:15:12;;;;;;;;;;;;;;;;;;5067700;28;1309;-75
2022/11/22 10:17:41;;;;;;;;;;;;;;;;;;5071710;28;989;-75
2022/11/22 10:20:14;;;;;;;;;;;;;;;;;;5070493;28;1906;-75
2022/11/22 10:22:40;;;;;;;;;;;;;;;;;;5065723;28;1103;-75
2022/11/22 10:25:11;;;;;;;;;;;;;;;;;;5069129;28;1396;-75
2022/11/22 10:27:37;;;;;;;;;;;;;;;;;;5067128;28;1067;-76
2022/11/22 10:30:04;;;;;;;;;;;;;;;;;;5069451;28;865;-74
2022/11/22 10:32:32;;;;;;;;;;;;;;;;;;5065847;28;1107;-75
2022/11/22 10:35:04;;;;;;;;;;;;;;;;;;5065729;28;1315;-75
2022/11/22 10:37:33;;;;;;;;;;;;;;;;;;5070991;28;1064;-75
2022/11/22 10:40:03;;;;;;;;;;;;;;;;;;5070203;28;1493;-75
2022/11/22 10:42:36;;;;;;;;;;;;;;;;;;5070563;28;936;-75
2022/11/22 10:45:03;;;;;;;;;;;;;;;;;;5059993;28;1410;-75
2022/11/22 10:47:37;;;;;;;;;;;;;;;;;;5051319;28;1106;-75
2022/11/22 10:50:05;;;;;;;;;;;;;;;;;;5050755;28;1118;-75
2022/11/22 10:52:35;;;;;;;;;;;;;;;;;;5049327;28;873;-75
2022/11/22 10:55:03;;;;;;;;;;;;;;;;;;5047735;28;1330;-75
2022/11/22 10:57:32;;;;;;;;;;;;;;;;;;5048059;28;1115;-76
2022/11/22 11:00:03;;;;;;;;;;;;;;;;;;5049751;28;1259;-75
2022/11/22 11:02:34;;;;;;;;;;;;;;;;;;5048934;28;1909;-75
2022/11/22 11:05:01;;;;;;;;;;;;;;;;;;5051617;28;1317;-75
2022/11/22 11:07:27;;;;;;;;;;;;;;;;;;5051133;28;1091;-75
2022/11/22 11:09:55;;;;;;;;;;;;;;;;;;5050807;28;918;-75
2022/11/22 11:12:22;;;;;;;;;;;;;;;;;;5051762;28;1106;-75
2022/11/22 11:14:48;;;;;;;;;;;;;;;;;;5055227;28;1353;-74
2022/11/22 11:17:15;;;;;;;;;;;;;;;;;;5055582;28;1162;-75
2022/11/22 11:19:42;;;;;;;;;;;;;;;;;;5055260;28;786;-75
2022/11/22 11:22:12;;;;;;;;;;;;;;;;;;5078596;22;1914;-78
2022/11/22 11:24:40;;;;;;;;;;;;;;;;;;5064279;28;1153;-79
2022/11/22 11:27:08;;;;;;;;;;;;;;;;;;5063135;28;1169;-78
2022/11/22 11:29:37;;;;;;;;;;;;;;;;;;5064086;28;1119;-79
2022/11/22 11:32:07;;;;;;;;;;;;;;;;;;5063730;28;1255;-79
2022/11/22 11:34:33;;;;;;;;;;;;;;;;;;5061746;28;1701;-79
2022/11/22 11:36:59;;;;;;;;;;;;;;;;;;5065693;28;1425;-78
2022/11/22 11:39:27;;;;;;;;;;;;;;;;;;5062649;28;1096;-78
2022/11/22 11:41:53;;;;;;;;;;;;;;;;;;5061799;28;2172;-79
2022/11/22 11:44:27;;;;;;;;;;;;;;;;;;5064872;28;957;-80
2022/11/22 11:46:53;;;;;;;;;;;;;;;;;;5064109;28;1139;-79
2022/11/22 11:49:21;;;;;;;;;;;;;;;;;;5059850;28;759;-79
2022/11/22 11:51:47;;;;;;;;;;;;;;;;;;5063054;28;1331;-79
2022/11/22 11:54:14;;;;;;;;;;;;;;;;;;5064395;28;1051;-79
2022/11/22 11:56:44;;;;;;;;;;;;;;;;;;5064778;28;1055;-78
2022/11/22 11:59:12;;;;;;;;;;;;;;;;;;5065601;28;1113;-79
2022/11/22 12:01:39;;;;;;;;;;;;;;;;;;5062527;28;1891;-78
2022/11/22 12:04:06;;;;;;;;;;;;;;;;;;5064123;28;833;-78
2022/11/22 12:06:32;;;;;;;;;;;;;;;;;;5063590;28;1047;-79
2022/11/22 12:08:59;;;;;;;;;;;;;;;;;;5064302;28;751;-79
2022/11/22 12:11:26;;;;;;;;;;;;;;;;;;5062854;28;1415;-79
2022/11/22 12:13:53;;;;;;;;;;;;;;;;;;5063339;28;1236;-79
2022/11/22 12:16:20;;;;;;;;;;;;;;;;;;5065213;28;1111;-79
2022/11/22 12:18:48;;;;;;;;;;;;;;;;;;5065973;28;1068;-79
2022/11/22 12:21:16;;;;;;;;;;;;;;;;;;5060571;28;1997;-77
2022/11/22 12:23:44;;;;;;;;;;;;;;;;;;5059787;28;949;-79
2022/11/22 12:26:10;;;;;;;;;;;;;;;;;;5062783;28;1052;-80
2022/11/22 12:28:37;;;;;;;;;;;;;;;;;;5062488;28;662;-80
2022/11/22 12:31:04;;;;;;;;;;;;;;;;;;5060131;28;1437;-79
2022/11/22 12:33:32;;;;;;;;;;;;;;;;;;5060295;28;1483;-79
2022/11/22 12:35:59;;;;;;;;;;;;;;;;;;5062463;28;1072;-80
2022/11/22 12:38:27;;;;;;;;;;;;;;;;;;5057929;28;1233;-80
2022/11/22 12:40:54;;;;;;;;;;;;;;;;;;5061246;28;1891;-79
2022/11/22 12:43:21;;;;;;;;;;;;;;;;;;5059462;28;1096;-78
2022/11/22 12:45:48;;;;;;;;;;;;;;;;;;5060094;28;1100;-78
2022/11/22 12:48:15;;;;;;;;;;;;;;;;;;5069104;28;908;-78
2022/11/22 12:50:42;;;;;;;;;;;;;;;;;;5068510;28;1367;-77
2022/11/22 12:53:12;;;;;;;;;;;;;;;;;;5058587;28;1043;-77
2022/11/22 12:55:40;;;;;;;;;;;;;;;;;;5055869;28;1103;-77
2022/11/22 12:58:08;;;;;;;;;;;;;;;;;;5056101;28;810;-77
2022/11/22 13:00:35;;;;;;;;;;;;;;;;;;5055694;28;1312;-77
2022/11/22 13:03:03;;;;;;;;;;;;;;;;;;5055964;28;1940;-78
2022/11/22 13:05:30;;;;;;;;;;;;;;;;;;5065803;28;755;-77
2022/11/22 13:07:57;;;;;;;;;;;;;;;;;;5066316;28;1015;-76
2022/11/22 13:10:28;;;;;;;;;;;;;;;;;;5064304;28;1162;-78
2022/11/22 13:12:55;;;;;;;;;;;;;;;;;;5056698;28;1330;-78
2022/11/22 13:15:24;;;;;;;;;;;;;;;;;;5060037;28;1024;-78
2022/11/22 13:17:50;;;;;;;;;;;;;;;;;;5059042;28;1193;-80
2022/11/22 13:20:18;;;;;;;;;;;;;;;;;;5060074;28;981;-78
2022/11/22 13:22:46;;;;;;;;;;;;;;;;;;5059431;28;1923;-78
2022/11/22 13:25:21;;;;;;;;;;;;;;;;;;5061201;28;992;-78
2022/11/22 13:27:49;;;;;;;;;;;;;;;;;;5061395;28;1223;-78
2022/11/22 13:30:17;;;;;;;;;;;;;;;;;;5059194;28;1204;-79
2022/11/22 13:32:43;;;;;;;;;;;;;;;;;;5049305;28;1695;-79
2022/11/22 13:35:19;;;;;;;;;;;;;;;;;;5057926;28;1291;-79
2022/11/22 13:37:45;;;;;;;;;;;;;;;;;;5060376;28;1125;-78
2022/11/22 13:40:20;;;;;;;;;;;;;;;;;;5064126;28;1110;-79
2022/11/22 13:42:46;;;;;;;;;;;;;;;;;;5066250;28;1895;-79
2022/11/22 13:45:21;;;;;;;;;;;;;;;;;;5065341;28;1252;-79
2022/11/22 13:47:48;;;;;;;;;;;;;;;;;;5063890;28;1245;-79
2022/11/22 13:50:33;;;;;;;;;;;;;;;;;;5065666;28;1411;-78
2022/11/22 13:52:59;;;;;;;;;;;;;;;;;;5058923;28;1193;-80
2022/11/22 13:55:27;;;;;;;;;;;;;;;;;;5057286;28;1271;-81
2022/11/22 13:57:53;;;;;;;;;;;;;;;;;;5061686;28;1099;-80
2022/11/22 14:00:38;;;;;;;;;;;;;;;;;;5063137;28;758;-79
2022/11/22 14:03:19;;;;;;;;;;;;;;;;;;5060024;28;1913;-79
2022/11/22 14:05:46;;;;;;;;;;;;;;;;;;5061183;28;1068;-79
2022/11/22 14:08:26;;;;;;;;;;;;;;;;;;5064929;28;981;-80
2022/11/22 14:10:59;;;;;;;;;;;;;;;;;;5064373;28;1257;-80
2022/11/22 14:13:29;;;;;;;;;;;;;;;;;;5063041;28;1055;-79
2022/11/22 14:16:05;;;;;;;;;;;;;;;;;;5062742;28;1100;-79
2022/11/22 14:18:49;;;;;;;;;;;;;;;;;;5065065;28;1124;-80
2022/11/22 14:21:17;;;;;;;;;;;;;;;;;;5061684;28;1977;-77
2022/11/22 14:23:47;;;;;;;;;;;;;;;;;;5063154;28;1263;-80
2022/11/22 14:26:16;;;;;;;;;;;;;;;;;;5056224;28;1139;-79
2022/11/22 14:29:01;;;;;;;;;;;;;;;;;;5053016;28;1227;-79
2022/11/22 14:31:29;;;;;;;;;;;;;;;;;;5054855;28;1274;-79
2022/11/22 14:34:15;;;;;;;;;;;;;;;;;;5054795;28;1571;-80
2022/11/22 14:36:42;;;;;;;;;;;;;;;;;;5056172;28;1344;-80
2022/11/22 14:39:23;;;;;;;;;;;;;;;;;;5055382;28;1235;-78
2022/11/22 14:41:49;;;;;;;;;;;;;;;;;;5054017;28;1906;-78
2022/11/22 14:44:16;;;;;;;;;;;;;;;;;;5038607;28;1104;-78
2022/11/22 14:46:45;;;;;;;;;;;;;;;;;;5036746;28;949;-79
2022/11/22 14:49:13;;;;;;;;;;;;;;;;;;5036364;28;1168;-80
2022/11/22 14:51:40;;;;;;;;;;;;;;;;;;5036958;28;1300;-82
2022/11/22 14:54:11;;;;;;;;;;;;;;;;;;5041691;28;1103;-80
2022/11/22 14:56:38;;;;;;;;;;;;;;;;;;5042739;28;1081;-81
2022/11/22 14:59:07;;;;;;;;;;;;;;;;;;5040879;28;711;-81
2022/11/22 15:01:43;;;;;;;;;;;;;;;;;;5039094;28;1911;-79
2022/11/22 15:04:30;;;;;;;;;;;;;;;;;;5039071;28;1342;-79
2022/11/22 15:07:03;;;;;;;;;;;;;;;;;;5031248;28;1186;-79
2022/11/22 15:09:37;;;;;;;;;;;;;;;;;;5040857;28;1068;-78
2022/11/22 15:12:05;;;;;;;;;;;;;;;;;;5041032;28;1346;-79
2022/11/22 15:14:48;;;;;;;;;;;;;;;;;;5040013;28;873;-80
2022/11/22 15:17:15;;;;;;;;;;;;;;;;;;5037678;28;1158;-79
2022/11/22 15:19:42;;;;;;;;;;;;;;;;;;5039825;28;969;-80
2022/11/22 15:22:11;;;;;;;;;;;;;;;;;;5039137;28;1938;-79
2022/11/22 15:24:38;;;;;;;;;;;;;;;;;;5041910;28;888;-80
2022/11/22 15:27:09;;;;;;;;;;;;;;;;;;5043061;28;850;-80
2022/11/22 15:29:35;;;;;;;;;;;;;;;;;;5046632;28;1064;-79
2022/11/22 15:32:03;;;;;;;;;;;;;;;;;;5044209;28;1233;-78
2022/11/22 15:34:29;;;;;;;;;;;;;;;;;;5040648;28;1457;-78
2022/11/22 15:36:59;;;;;;;;;;;;;;;;;;5043185;28;814;-79
2022/11/22 15:39:27;;;;;;;;;;;;;;;;;;5047813;28;1175;-78
2022/11/22 15:41:53;;;;;;;;;;;;;;;;;;5057660;28;1918;-78
2022/11/22 15:44:19;;;;;;;;;;;;;;;;;;5058053;28;1347;-79
2022/11/22 15:46:45;;;;;;;;;;;;;;;;;;5062213;28;1262;-78
2022/11/22 15:49:12;;;;;;;;;;;;;;;;;;5060696;28;1199;-79
2022/11/22 15:51:48;;;;;;;;;;;;;;;;;;5058637;28;1391;-79
2022/11/22 15:54:18;;;;;;;;;;;;;;;;;;5060294;28;1237;-81
2022/11/22 15:56:46;;;;;;;;;;;;;;;;;;5061815;28;925;-79
2022/11/22 15:59:14;;;;;;;;;;;;;;;;;;5063956;28;1514;-79
2022/11/22 16:01:40;;;;;;;;;;;;;;;;;;5063178;28;1943;-79
2022/11/22 16:04:13;;;;;;;;;;;;;;;;;;5061797;28;1147;-79
2022/11/22 16:06:39;;;;;;;;;;;;;;;;;;5062474;28;1328;-79
2022/11/22 16:09:06;;;;;;;;;;;;;;;;;;5064731;28;1323;-79
2022/11/22 16:11:33;;;;;;;;;;;;;;;;;;5064979;28;1295;-79
2022/11/22 16:14:00;;;;;;;;;;;;;;;;;;5066603;28;732;-80
2022/11/22 16:16:27;;;;;;;;;;;;;;;;;;5068559;28;1063;-79
2022/11/22 16:18:53;;;;;;;;;;;;;;;;;;5062736;28;1148;-80
2022/11/22 16:21:26;;;;;;;;;;;;;;;;;;5067701;28;1389;-78
2022/11/22 16:24:10;;;;;;;;;;;;;;;;;;5071221;28;1968;-79
2022/11/22 16:26:36;;;;;;;;;;;;;;;;;;5074323;28;1234;-79
2022/11/22 16:29:15;;;;;;;;;;;;;;;;;;5071853;28;1155;-79
2022/11/22 16:31:42;;;;;;;;;;;;;;;;;;5059679;28;1404;-79
2022/11/22 16:34:10;;;;;;;;;;;;;;;;;;5058701;28;1231;-78
2022/11/22 16:36:36;;;;;;;;;;;;;;;;;;5063434;28;1282;-79
2022/11/22 16:39:03;;;;;;;;;;;;;;;;;;5061376;28;1436;-79
2022/11/22 16:41:29;;;;;;;;;;;;;;;;;;5065422;28;1609;-79
2022/11/22 16:43:56;;;;;;;;;;;;;;;;;;5067141;28;1961;-79
2022/11/22 16:46:24;;;;;;;;;;;;;;;;;;5067857;28;1354;-79
2022/11/22 16:48:50;;;;;;;;;;;;;;;;;;5066955;28;999;-79
2022/11/22 16:51:17;;;;;;;;;;;;;;;;;;5065811;28;1381;-78
2022/11/22 16:53:44;;;;;;;;;;;;;;;;;;5063494;28;1258;-79
2022/11/22 16:56:14;;;;;;;;;;;;;;;;;;5064327;28;985;-79
2022/11/22 16:58:41;;;;;;;;;;;;;;;;;;5066745;28;901;-79
2022/11/22 17:01:08;;;;;;;;;;;;;;;;;;5063977;28;1387;-79
2022/11/22 17:03:35;;;;;;;;;;;;;;;;;;5061474;28;1891;-79
2022/11/22 17:06:02;;;;;;;;;;;;;;;;;;5062684;28;1166;-79
2022/11/22 17:08:28;;;;;;;;;;;;;;;;;;5063134;28;1117;-79
2022/11/22 17:10:54;;;;;;;;;;;;;;;;;;5059838;28;1359;-79
2022/11/22 17:13:21;;;;;;;;;;;;;;;;;;5060896;28;717;-79
2022/11/22 17:15:48;;;;;;;;;;;;;;;;;;5060739;28;1335;-78
2022/11/22 17:18:14;;;;;;;;;;;;;;;;;;5056700;28;985;-78
2022/11/22 17:20:42;;;;;;;;;;;;;;;;;;5008296;28;1573;-75
2022/11/22 17:23:11;;;;;;;;;;;;;;;;;;4990159;28;1994;-75
2022/11/22 17:25:40;;;;;;;;;;;;;;;;;;5035261;22;3562;-82